CFG16CS LEAL-EDDM
Flight info
| Callsign | CFG16CS |
|---|---|
| Flight time | N/A |
| Altitude | 38000 |
| Route | MITOS N851 PTC DCT CDP DCT CHELY DCT LUMAS DCT UNANA DCT STP DCT RAPED DCT PIGOS DCT EKSID DCT NOSTA DCT NOPMU DCT TAGIP DCT GUNGO DCT IVKAL T102 NINUR T101 BETOS BETOS1A |
| Aircraft | A20N/M-SDE2E3FGHIRWXY/LB1 |
Departure
| Time | N/A |
|---|---|
| Airport | Alicante-Elche Miguel Hernández Airport (LEAL) |
Arrival
| Time | 2026-05-01 09:04 |
|---|---|
| Airport | Munich Airport (EDDM) |
| Time | Latitude | Longitude | Altitude | Speed | Heading |
|---|---|---|---|---|---|
| 2026-05-01 07:23 | 39.77139 | 3.48984 | 38154 ft | 447 kts | 28° |
| 2026-05-01 07:24 | 39.85139 | 3.55095 | 38156 ft | 446 kts | 28° |
| 2026-05-01 07:24 | 39.90487 | 3.59184 | 38155 ft | 446 kts | 28° |
| 2026-05-01 07:25 | 39.95921 | 3.63343 | 38156 ft | 446 kts | 28° |
| 2026-05-01 07:25 | 40.01307 | 3.67470 | 38154 ft | 446 kts | 28° |
| 2026-05-01 07:26 | 40.06733 | 3.71638 | 38158 ft | 446 kts | 28° |
| 2026-05-01 07:26 | 40.12209 | 3.75850 | 38165 ft | 447 kts | 28° |
| 2026-05-01 07:27 | 40.17600 | 3.80008 | 38166 ft | 447 kts | 28° |
| 2026-05-01 07:27 | 40.23022 | 3.84196 | 38167 ft | 447 kts | 28° |
| 2026-05-01 07:28 | 40.28424 | 3.88375 | 38168 ft | 446 kts | 28° |
| 2026-05-01 07:28 | 40.33861 | 3.92591 | 38169 ft | 446 kts | 28° |
| 2026-05-01 07:29 | 40.39211 | 3.96747 | 38171 ft | 445 kts | 28° |
| 2026-05-01 07:29 | 40.44621 | 4.00956 | 38175 ft | 445 kts | 28° |
| 2026-05-01 07:30 | 40.49926 | 4.05090 | 38179 ft | 446 kts | 28° |
| 2026-05-01 07:30 | 40.55255 | 4.09253 | 38177 ft | 446 kts | 28° |
| 2026-05-01 07:31 | 40.60574 | 4.13416 | 38185 ft | 446 kts | 28° |
| 2026-05-01 07:32 | 40.73869 | 4.23855 | 38187 ft | 446 kts | 28° |
| 2026-05-01 07:33 | 40.81812 | 4.30116 | 38192 ft | 446 kts | 28° |
| 2026-05-01 07:33 | 40.89783 | 4.36417 | 38195 ft | 446 kts | 28° |
| 2026-05-01 07:34 | 40.97720 | 4.42713 | 38198 ft | 445 kts | 28° |
| 2026-05-01 07:35 | 41.03066 | 4.46753 | 38199 ft | 444 kts | 24° |
| 2026-05-01 07:35 | 41.08710 | 4.49967 | 38203 ft | 440 kts | 16° |
| 2026-05-01 07:36 | 41.14558 | 4.52204 | 38204 ft | 437 kts | 9° |
| 2026-05-01 07:36 | 41.20495 | 4.53705 | 38203 ft | 436 kts | 7° |
| 2026-05-01 07:37 | 41.29430 | 4.55854 | 38207 ft | 436 kts | 7° |
| 2026-05-01 07:37 | 41.35372 | 4.57303 | 38205 ft | 436 kts | 7° |
| 2026-05-01 07:38 | 41.41310 | 4.58757 | 38208 ft | 436 kts | 7° |
| 2026-05-01 07:39 | 41.50235 | 4.60952 | 38210 ft | 435 kts | 7° |
| 2026-05-01 07:39 | 41.59114 | 4.63143 | 38209 ft | 434 kts | 7° |
| 2026-05-01 07:40 | 41.65026 | 4.64613 | 38209 ft | 434 kts | 9° |
| 2026-05-01 07:40 | 41.70803 | 4.67026 | 38214 ft | 438 kts | 21° |
| 2026-05-01 07:41 | 41.76119 | 4.70994 | 38216 ft | 442 kts | 33° |
| 2026-05-01 07:42 | 41.82956 | 4.79229 | 38218 ft | 444 kts | 43° |
| 2026-05-01 07:42 | 41.87313 | 4.85054 | 38218 ft | 443 kts | 43° |
| 2026-05-01 07:43 | 41.91661 | 4.90846 | 38414 ft | 442 kts | 43° |
| 2026-05-01 07:43 | 41.93831 | 4.93734 | 38287 ft | 441 kts | 43° |
| 2026-05-01 07:43 | 41.98161 | 4.99496 | 38234 ft | 440 kts | 43° |
| 2026-05-01 07:44 | 42.06837 | 5.11072 | 38230 ft | 440 kts | 42° |
| 2026-05-01 07:45 | 42.11172 | 5.16870 | 38234 ft | 440 kts | 42° |
| 2026-05-01 07:45 | 42.15524 | 5.22701 | 38238 ft | 440 kts | 42° |
| 2026-05-01 07:46 | 42.19892 | 5.28569 | 38237 ft | 440 kts | 42° |
| 2026-05-01 07:47 | 42.26390 | 5.37319 | 38236 ft | 441 kts | 42° |
| 2026-05-01 07:47 | 42.30706 | 5.43146 | 38239 ft | 441 kts | 42° |
| 2026-05-01 07:48 | 42.37187 | 5.51919 | 38247 ft | 440 kts | 42° |
| 2026-05-01 07:48 | 42.41490 | 5.57758 | 38246 ft | 439 kts | 42° |
| 2026-05-01 07:49 | 42.47949 | 5.66546 | 38247 ft | 439 kts | 42° |
| 2026-05-01 07:50 | 42.52235 | 5.72394 | 38249 ft | 439 kts | 42° |
| 2026-05-01 07:50 | 42.58669 | 5.81194 | 38254 ft | 440 kts | 42° |
| 2026-05-01 07:51 | 42.62970 | 5.87093 | 38258 ft | 440 kts | 42° |
| 2026-05-01 07:52 | 42.69397 | 5.95931 | 38257 ft | 439 kts | 42° |
| 2026-05-01 07:52 | 42.73659 | 6.01808 | 38258 ft | 438 kts | 42° |
| 2026-05-01 07:53 | 42.80055 | 6.10653 | 38259 ft | 438 kts | 41° |
| 2026-05-01 07:53 | 42.84308 | 6.16531 | 38262 ft | 437 kts | 40° |
| 2026-05-01 07:55 | 42.95765 | 6.29929 | 38284 ft | 435 kts | 36° |
| 2026-05-01 07:56 | 43.07281 | 6.43178 | 38297 ft | 434 kts | 36° |
| 2026-05-01 07:57 | 43.14202 | 6.51183 | 38298 ft | 433 kts | 36° |
| 2026-05-01 07:58 | 43.22957 | 6.62434 | 38299 ft | 437 kts | 45° |
| 2026-05-01 07:59 | 43.30259 | 6.75843 | 38287 ft | 440 kts | 50° |
| 2026-05-01 08:00 | 43.40961 | 6.96215 | 38306 ft | 437 kts | 50° |
| 2026-05-01 08:01 | 43.48090 | 7.09846 | 38312 ft | 436 kts | 50° |
| 2026-05-01 08:02 | 43.53440 | 7.20125 | 38312 ft | 434 kts | 50° |
| 2026-05-01 08:03 | 43.58790 | 7.30445 | 38311 ft | 433 kts | 50° |
| 2026-05-01 08:03 | 43.64210 | 7.40925 | 38318 ft | 432 kts | 50° |
| 2026-05-01 08:04 | 43.71404 | 7.54897 | 38311 ft | 431 kts | 50° |
| 2026-05-01 08:05 | 43.76761 | 7.65353 | 38313 ft | 429 kts | 51° |
| 2026-05-01 08:06 | 43.82596 | 7.75314 | 38320 ft | 424 kts | 42° |
| 2026-05-01 08:07 | 43.91782 | 7.86089 | 38327 ft | 420 kts | 34° |
| 2026-05-01 08:08 | 43.98636 | 7.94327 | 38338 ft | 422 kts | 40° |
| 2026-05-01 08:09 | 44.07309 | 8.05998 | 38357 ft | 421 kts | 41° |
| 2026-05-01 08:09 | 44.11627 | 8.11824 | 38359 ft | 420 kts | 41° |
| 2026-05-01 08:10 | 44.20405 | 8.23699 | 38346 ft | 420 kts | 41° |
| 2026-05-01 08:11 | 44.29162 | 8.35597 | 38347 ft | 420 kts | 41° |
| 2026-05-01 08:12 | 44.35772 | 8.44611 | 38360 ft | 420 kts | 41° |
| 2026-05-01 08:13 | 44.42295 | 8.53538 | 38362 ft | 419 kts | 41° |
| 2026-05-01 08:13 | 44.48805 | 8.62475 | 38368 ft | 417 kts | 41° |
| 2026-05-01 08:14 | 44.53145 | 8.68450 | 38371 ft | 418 kts | 41° |
| 2026-05-01 08:14 | 44.57481 | 8.74431 | 38374 ft | 418 kts | 41° |
| 2026-05-01 08:15 | 44.63970 | 8.83410 | 38375 ft | 417 kts | 41° |
| 2026-05-01 08:16 | 44.68334 | 8.89464 | 38369 ft | 417 kts | 41° |
| 2026-05-01 08:16 | 44.72658 | 8.95476 | 38371 ft | 418 kts | 41° |
| 2026-05-01 08:17 | 44.76982 | 9.01504 | 38370 ft | 417 kts | 41° |
| 2026-05-01 08:17 | 44.81264 | 9.07483 | 38356 ft | 417 kts | 41° |
| 2026-05-01 08:18 | 44.85554 | 9.13488 | 38358 ft | 417 kts | 41° |
| 2026-05-01 08:19 | 44.94097 | 9.25485 | 38415 ft | 415 kts | 42° |
| 2026-05-01 08:19 | 44.98359 | 9.31489 | 38398 ft | 415 kts | 42° |
| 2026-05-01 08:20 | 45.02617 | 9.37507 | 38390 ft | 414 kts | 42° |
| 2026-05-01 08:20 | 45.06798 | 9.43425 | 38396 ft | 413 kts | 42° |
| 2026-05-01 08:21 | 45.10956 | 9.49325 | 38402 ft | 413 kts | 42° |
| 2026-05-01 08:21 | 45.15071 | 9.55174 | 38402 ft | 412 kts | 42° |
| 2026-05-01 08:22 | 45.19235 | 9.61106 | 38404 ft | 412 kts | 42° |
| 2026-05-01 08:22 | 45.23424 | 9.67085 | 38397 ft | 411 kts | 43° |
| 2026-05-01 08:23 | 45.27683 | 9.73181 | 38396 ft | 411 kts | 43° |
| 2026-05-01 08:23 | 45.31974 | 9.79337 | 38395 ft | 410 kts | 43° |
| 2026-05-01 08:24 | 45.36231 | 9.85458 | 38393 ft | 410 kts | 42° |
| 2026-05-01 08:24 | 45.40552 | 9.91682 | 38404 ft | 408 kts | 42° |
| 2026-05-01 08:25 | 45.44800 | 9.97817 | 38403 ft | 407 kts | 43° |
| 2026-05-01 08:25 | 45.49079 | 10.04011 | 38412 ft | 408 kts | 43° |
| 2026-05-01 08:26 | 45.53333 | 10.10183 | 38404 ft | 407 kts | 43° |
| 2026-05-01 08:26 | 45.57644 | 10.16454 | 38382 ft | 408 kts | 43° |
| 2026-05-01 08:27 | 45.61925 | 10.22694 | 38399 ft | 407 kts | 43° |
| 2026-05-01 08:27 | 45.66194 | 10.28931 | 38407 ft | 406 kts | 43° |
| 2026-05-01 08:28 | 45.70560 | 10.35326 | 38403 ft | 405 kts | 43° |
| 2026-05-01 08:28 | 45.74897 | 10.41696 | 38399 ft | 404 kts | 43° |
| 2026-05-01 08:29 | 45.79223 | 10.48063 | 38390 ft | 404 kts | 43° |
| 2026-05-01 08:29 | 45.83506 | 10.54386 | 38383 ft | 402 kts | 43° |
| 2026-05-01 08:30 | 45.87818 | 10.60763 | 38369 ft | 402 kts | 43° |
| 2026-05-01 08:30 | 45.92273 | 10.66589 | 38357 ft | 399 kts | 37° |
| 2026-05-01 08:31 | 45.97182 | 10.71663 | 38338 ft | 398 kts | 31° |
| 2026-05-01 08:31 | 46.02242 | 10.75810 | 38317 ft | 397 kts | 28° |
| 2026-05-01 08:32 | 46.07364 | 10.79756 | 38311 ft | 397 kts | 28° |
| 2026-05-01 08:32 | 46.12572 | 10.83766 | 38314 ft | 396 kts | 28° |
| 2026-05-01 08:33 | 46.17816 | 10.87816 | 38328 ft | 396 kts | 28° |
| 2026-05-01 08:33 | 46.22945 | 10.91785 | 38351 ft | 397 kts | 28° |
| 2026-05-01 08:34 | 46.28076 | 10.95768 | 38348 ft | 397 kts | 28° |
| 2026-05-01 08:34 | 46.33212 | 10.99760 | 38353 ft | 396 kts | 28° |
| 2026-05-01 08:35 | 46.38547 | 11.03192 | 38368 ft | 397 kts | 19° |
| 2026-05-01 08:35 | 46.44225 | 11.05243 | 38382 ft | 399 kts | 10° |
| 2026-05-01 08:36 | 46.49986 | 11.05830 | 38387 ft | 401 kts | 1° |
| 2026-05-01 08:36 | 46.55896 | 11.05471 | 38383 ft | 402 kts | 360° |
| 2026-05-01 08:37 | 46.61976 | 11.05023 | 38384 ft | 401 kts | 360° |
| 2026-05-01 08:37 | 46.65010 | 11.04798 | 38038 ft | 396 kts | 0° |
| 2026-05-01 08:37 | 46.67930 | 11.04583 | 37349 ft | 394 kts | 0° |
| 2026-05-01 08:37 | 46.70732 | 11.04376 | 36680 ft | 392 kts | 0° |
| 2026-05-01 08:38 | 46.73459 | 11.04172 | 36163 ft | 390 kts | 0° |
| 2026-05-01 08:38 | 46.76170 | 11.03973 | 35591 ft | 390 kts | 1° |
| 2026-05-01 08:38 | 46.78919 | 11.03734 | 34983 ft | 391 kts | 359° |
| 2026-05-01 08:38 | 46.81653 | 11.03307 | 34342 ft | 393 kts | 357° |
| 2026-05-01 08:39 | 46.84404 | 11.02799 | 33647 ft | 394 kts | 357° |
| 2026-05-01 08:39 | 46.87143 | 11.02281 | 32923 ft | 395 kts | 357° |
| 2026-05-01 08:39 | 46.89907 | 11.01788 | 32155 ft | 397 kts | 358° |
| 2026-05-01 08:39 | 46.92710 | 11.01484 | 31338 ft | 398 kts | 1° |
| 2026-05-01 08:40 | 46.98388 | 11.01539 | 29557 ft | 402 kts | 6° |
| 2026-05-01 08:40 | 47.01238 | 11.01889 | 28790 ft | 401 kts | 8° |
| 2026-05-01 08:40 | 47.04077 | 11.02303 | 28209 ft | 396 kts | 8° |
| 2026-05-01 08:41 | 47.06891 | 11.02728 | 27580 ft | 392 kts | 8° |
| 2026-05-01 08:41 | 47.09698 | 11.03152 | 26939 ft | 389 kts | 9° |
| 2026-05-01 08:41 | 47.12509 | 11.03582 | 26308 ft | 386 kts | 9° |
| 2026-05-01 08:41 | 47.15259 | 11.04001 | 25661 ft | 383 kts | 9° |
| 2026-05-01 08:42 | 47.17953 | 11.04412 | 25052 ft | 381 kts | 9° |
| 2026-05-01 08:42 | 47.20599 | 11.04815 | 24465 ft | 377 kts | 9° |
| 2026-05-01 08:42 | 47.23289 | 11.05228 | 23847 ft | 374 kts | 9° |
| 2026-05-01 08:42 | 47.25878 | 11.05624 | 23252 ft | 371 kts | 9° |
| 2026-05-01 08:43 | 47.28538 | 11.06032 | 22636 ft | 369 kts | 9° |
| 2026-05-01 08:43 | 47.31254 | 11.06446 | 22012 ft | 366 kts | 9° |
| 2026-05-01 08:43 | 47.33809 | 11.06837 | 21477 ft | 362 kts | 9° |
| 2026-05-01 08:43 | 47.36328 | 11.07224 | 21216 ft | 360 kts | 9° |
| 2026-05-01 08:44 | 47.38811 | 11.07608 | 20965 ft | 359 kts | 9° |
| 2026-05-01 08:44 | 47.41280 | 11.07988 | 20621 ft | 356 kts | 9° |
| 2026-05-01 08:44 | 47.43736 | 11.08367 | 20007 ft | 355 kts | 9° |
| 2026-05-01 08:44 | 47.46180 | 11.08744 | 19404 ft | 355 kts | 10° |
| 2026-05-01 08:45 | 47.48618 | 11.09119 | 18866 ft | 352 kts | 9° |
| 2026-05-01 08:45 | 47.51034 | 11.09491 | 18365 ft | 349 kts | 9° |
| 2026-05-01 08:45 | 47.53457 | 11.09870 | 17828 ft | 347 kts | 11° |
| 2026-05-01 08:45 | 47.55798 | 11.10541 | 17260 ft | 343 kts | 19° |
| 2026-05-01 08:46 | 47.58021 | 11.11713 | 16703 ft | 338 kts | 26° |
| 2026-05-01 08:46 | 47.60080 | 11.13297 | 16240 ft | 333 kts | 32° |
| 2026-05-01 08:46 | 47.62095 | 11.14984 | 15687 ft | 333 kts | 28° |
| 2026-05-01 08:46 | 47.64286 | 11.16191 | 15102 ft | 334 kts | 19° |
| 2026-05-01 08:47 | 47.66504 | 11.17157 | 14619 ft | 332 kts | 19° |
| 2026-05-01 08:47 | 47.68724 | 11.18114 | 14315 ft | 330 kts | 19° |
| 2026-05-01 08:47 | 47.70915 | 11.19086 | 14056 ft | 328 kts | 19° |
| 2026-05-01 08:47 | 47.73058 | 11.20055 | 13824 ft | 318 kts | 19° |
| 2026-05-01 08:48 | 47.75145 | 11.21014 | 13419 ft | 315 kts | 19° |
| 2026-05-01 08:48 | 47.77247 | 11.21995 | 12642 ft | 324 kts | 20° |
| 2026-05-01 08:48 | 47.79387 | 11.23001 | 12040 ft | 325 kts | 20° |
| 2026-05-01 08:48 | 47.81535 | 11.24013 | 11648 ft | 321 kts | 20° |
| 2026-05-01 08:49 | 47.83656 | 11.25013 | 11387 ft | 312 kts | 20° |
| 2026-05-01 08:49 | 47.85691 | 11.25976 | 11121 ft | 303 kts | 20° |
| 2026-05-01 08:49 | 47.87668 | 11.26911 | 10883 ft | 295 kts | 20° |
| 2026-05-01 08:49 | 47.89593 | 11.27824 | 10652 ft | 287 kts | 20° |
| 2026-05-01 08:50 | 47.91467 | 11.28714 | 10428 ft | 280 kts | 20° |
| 2026-05-01 08:50 | 47.93302 | 11.29589 | 10360 ft | 277 kts | 20° |
| 2026-05-01 08:50 | 47.95142 | 11.30471 | 10353 ft | 278 kts | 20° |
| 2026-05-01 08:50 | 47.96996 | 11.31359 | 10358 ft | 278 kts | 20° |
| 2026-05-01 08:51 | 47.98836 | 11.32238 | 10364 ft | 278 kts | 20° |
| 2026-05-01 08:51 | 48.00673 | 11.33117 | 10359 ft | 278 kts | 20° |
| 2026-05-01 08:51 | 48.02532 | 11.34004 | 10374 ft | 278 kts | 20° |
| 2026-05-01 08:51 | 48.04386 | 11.34890 | 10383 ft | 277 kts | 20° |
| 2026-05-01 08:52 | 48.06266 | 11.35790 | 10388 ft | 277 kts | 20° |
| 2026-05-01 08:52 | 48.08187 | 11.36711 | 10390 ft | 278 kts | 21° |
| 2026-05-01 08:52 | 48.10125 | 11.37638 | 10240 ft | 273 kts | 21° |
| 2026-05-01 08:52 | 48.12014 | 11.38544 | 9807 ft | 275 kts | 21° |
| 2026-05-01 08:53 | 48.13723 | 11.39792 | 9415 ft | 267 kts | 43° |
| 2026-05-01 08:53 | 48.14799 | 11.41993 | 9236 ft | 253 kts | 67° |
| 2026-05-01 08:53 | 48.15419 | 11.44564 | 9052 ft | 243 kts | 72° |
| 2026-05-01 08:53 | 48.15941 | 11.47137 | 8892 ft | 234 kts | 73° |
| 2026-05-01 08:54 | 48.16413 | 11.49537 | 8648 ft | 229 kts | 74° |
| 2026-05-01 08:54 | 48.16905 | 11.52053 | 8312 ft | 228 kts | 74° |
| 2026-05-01 08:54 | 48.17360 | 11.54442 | 7982 ft | 227 kts | 78° |
| 2026-05-01 08:54 | 48.17386 | 11.56879 | 7637 ft | 226 kts | 94° |
| 2026-05-01 08:55 | 48.17487 | 11.59350 | 7284 ft | 225 kts | 69° |
| 2026-05-01 08:55 | 48.18558 | 11.61370 | 6907 ft | 230 kts | 34° |
| 2026-05-01 08:55 | 48.20313 | 11.62061 | 6514 ft | 240 kts | 359° |
| 2026-05-01 08:55 | 48.22066 | 11.61070 | 6142 ft | 249 kts | 323° |
| 2026-05-01 08:56 | 48.23190 | 11.58699 | 5762 ft | 255 kts | 288° |
| 2026-05-01 08:56 | 48.23381 | 11.55870 | 5438 ft | 254 kts | 267° |
| 2026-05-01 08:56 | 48.23261 | 11.53115 | 5115 ft | 253 kts | 264° |
| 2026-05-01 08:56 | 48.23091 | 11.50386 | 4960 ft | 250 kts | 264° |
| 2026-05-01 08:57 | 48.22911 | 11.47618 | 4954 ft | 252 kts | 264° |
| 2026-05-01 08:57 | 48.22721 | 11.44754 | 4949 ft | 252 kts | 264° |
| 2026-05-01 08:57 | 48.22586 | 11.41959 | 4942 ft | 253 kts | 275° |
| 2026-05-01 08:57 | 48.23230 | 11.39222 | 4944 ft | 249 kts | 311° |
| 2026-05-01 08:58 | 48.24759 | 11.37534 | 4964 ft | 240 kts | 345° |
| 2026-05-01 08:58 | 48.26543 | 11.36854 | 4963 ft | 236 kts | 359° |
| 2026-05-01 08:58 | 48.28234 | 11.37320 | 4954 ft | 224 kts | 34° |
| 2026-05-01 08:58 | 48.29458 | 11.38919 | 4963 ft | 212 kts | 51° |
| 2026-05-01 08:59 | 48.30491 | 11.40739 | 4952 ft | 199 kts | 54° |
| 2026-05-01 08:59 | 48.31214 | 11.42584 | 4938 ft | 180 kts | 71° |
| 2026-05-01 08:59 | 48.31590 | 11.44602 | 4944 ft | 173 kts | 79° |
| 2026-05-01 08:59 | 48.31845 | 11.46594 | 5030 ft | 173 kts | 80° |
| 2026-05-01 09:00 | 48.32044 | 11.48479 | 4956 ft | 172 kts | 82° |
| 2026-05-01 09:00 | 48.32208 | 11.50309 | 4749 ft | 171 kts | 83° |
| 2026-05-01 09:00 | 48.32355 | 11.52132 | 4513 ft | 171 kts | 83° |
| 2026-05-01 09:00 | 48.32498 | 11.54014 | 4271 ft | 170 kts | 84° |
| 2026-05-01 09:01 | 48.32640 | 11.55947 | 4024 ft | 170 kts | 84° |
| 2026-05-01 09:01 | 48.32783 | 11.57908 | 3764 ft | 161 kts | 84° |
| 2026-05-01 09:01 | 48.32916 | 11.59729 | 3509 ft | 146 kts | 84° |
| 2026-05-01 09:01 | 48.33036 | 11.61361 | 3309 ft | 133 kts | 83° |
| 2026-05-01 09:02 | 48.33149 | 11.62873 | 3120 ft | 125 kts | 83° |
| 2026-05-01 09:02 | 48.33257 | 11.64338 | 2937 ft | 123 kts | 84° |
| 2026-05-01 09:02 | 48.33350 | 11.65768 | 2768 ft | 123 kts | 86° |
| 2026-05-01 09:02 | 48.33476 | 11.67202 | 2569 ft | 123 kts | 83° |
| 2026-05-01 09:03 | 48.33612 | 11.68640 | 2361 ft | 122 kts | 85° |
| 2026-05-01 09:03 | 48.33723 | 11.70056 | 2216 ft | 122 kts | 86° |
| 2026-05-01 09:03 | 48.33804 | 11.71462 | 2061 ft | 122 kts | 87° |
| 2026-05-01 09:03 | 48.33909 | 11.72895 | 1866 ft | 121 kts | 85° |
| 2026-05-01 09:04 | 48.34012 | 11.74283 | 1693 ft | 120 kts | 86° |
| 2026-05-01 09:04 | 48.34117 | 11.75664 | 1538 ft | 119 kts | 85° |
| 2026-05-01 09:04 | 48.34191 | 11.76753 | 1527 ft | 69 kts | 84° |
| 2026-05-01 09:04 | 48.34238 | 11.77282 | 1526 ft | 25 kts | 78° |
| 2026-05-01 09:05 | 48.34310 | 11.77520 | 1525 ft | 20 kts | 57° |
| 2026-05-01 09:05 | 48.34385 | 11.77670 | 1524 ft | 5 kts | 53° |
| 2026-05-01 09:05 | 48.34406 | 11.77714 | 1524 ft | 5 kts | 55° |
| 2026-05-01 09:05 | 48.34435 | 11.77776 | 1523 ft | 7 kts | 56° |
| 2026-05-01 09:06 | 48.34473 | 11.77856 | 1523 ft | 9 kts | 50° |
| 2026-05-01 09:06 | 48.34537 | 11.77914 | 1523 ft | 10 kts | 14° |
| 2026-05-01 09:06 | 48.34621 | 11.77909 | 1523 ft | 11 kts | 354° |
| 2026-05-01 09:06 | 48.34705 | 11.77895 | 1523 ft | 8 kts | 353° |
| 2026-05-01 09:07 | 48.34757 | 11.77886 | 1522 ft | 6 kts | 354° |
| 2026-05-01 09:07 | 48.34777 | 11.77882 | 1522 ft | 0 kts | 353° |
| 2026-05-01 09:07 | 48.34782 | 11.77881 | 1522 ft | 2 kts | 353° |
| 2026-05-01 09:07 | 48.34810 | 11.77876 | 1522 ft | 6 kts | 354° |
| 2026-05-01 09:08 | 48.34873 | 11.77865 | 1522 ft | 9 kts | 353° |
| 2026-05-01 09:08 | 48.34949 | 11.77852 | 1522 ft | 10 kts | 354° |
| 2026-05-01 09:08 | 48.35025 | 11.77839 | 1522 ft | 9 kts | 354° |
| 2026-05-01 09:08 | 48.35098 | 11.77827 | 1522 ft | 9 kts | 354° |
| 2026-05-01 09:09 | 48.35166 | 11.77845 | 1522 ft | 9 kts | 39° |
| 2026-05-01 09:09 | 48.35189 | 11.77941 | 1522 ft | 9 kts | 85° |
| 2026-05-01 09:09 | 48.35195 | 11.78041 | 1522 ft | 8 kts | 85° |
| 2026-05-01 09:09 | 48.35195 | 11.78140 | 1521 ft | 8 kts | 108° |
| 2026-05-01 09:10 | 48.35145 | 11.78197 | 1521 ft | 8 kts | 171° |
| 2026-05-01 09:10 | 48.35085 | 11.78206 | 1521 ft | 7 kts | 173° |
| 2026-05-01 09:10 | 48.35033 | 11.78215 | 1521 ft | 6 kts | 173° |
| 2026-05-01 09:10 | 48.34989 | 11.78223 | 1522 ft | 5 kts | 173° |
| 2026-05-01 09:11 | 48.34951 | 11.78229 | 1522 ft | 4 kts | 176° |
| 2026-05-01 09:11 | 48.34921 | 11.78225 | 1522 ft | 3 kts | 187° |
| 2026-05-01 09:11 | 48.34894 | 11.78234 | 1522 ft | 4 kts | 142° |
| 2026-05-01 09:11 | 48.34875 | 11.78277 | 1522 ft | 5 kts | 118° |
| 2026-05-01 09:12 | 48.34858 | 11.78332 | 1522 ft | 4 kts | 99° |
| 2026-05-01 09:12 | 48.34861 | 11.78364 | 1522 ft | 3 kts | 80° |
| 2026-05-01 09:12 | 48.34863 | 11.78384 | 1522 ft | 2 kts | 83° |